Mountain Pine, AR

2:48 AM CST on December 22, 2014 (GMT -0600)
Mount Ida | Change Station
CLOSE
Current Station
Airport
Location: Mount Ida,
Elevation: 702 ft
Nearby Weather Stations

Elev 702 ft 34.55 °N, 93.58 °W | Updated 55 minutes ago

Overcast
Overcast
49 °F
Feels Like 49 °F
N
0
Wind Variable Wind from North

Today
High -- | Low -- °F
--% Chance of Precip.
Yesterday
High -- | Low -- °F
Precip. -- in
7:16 AM 5:06 PM
New Moon, 0% visible
Pressure 29.75 in
Visibility 9.0 miles
Clouds Overcast 1000 ft
Dew Point 46 °F
Humidity 90%
Rainfall 0.00 in
Snow Depth Not available.
UV 0 out of 12
Pollen 6.60 out of 12
Air Quality Not available.
Flu Activity Not available.
METAR KMWT 220753Z AUTO 00000KT 9SM OVC010 09/08 A2974 RMK AO2 CIG 007V014 SLP072 T00940078

More Conditions Fewer Conditions

Pressure 29.75 in
Visibility 9.0 miles
Clouds Overcast 1000 ft
Dew Point 46 °F
Humidity 90%
Rainfall 0.00 in
Snow Depth Not available.
UV 0 out of 12
Pollen 6.60 out of 12
Air Quality Not available.
Flu Activity Not available.
METAR KMWT 220753Z AUTO 00000KT 9SM OVC010 09/08 A2974 RMK AO2 CIG 007V014 SLP072 T00940078

More Conditions Fewer Conditions

10-Day Weather Forecast

Almanac

Astronomy

Dec. 22, 2014 Rise Set
Actual Time
Civil Twilight
Nautical Twilight
Astronomical Twilight
Moon
Length of Visible Light
Length of Day
Tomorrow will be .
, % of the Moon is Illuminated

Today's Extremes

State Highs State Lows

Community

WunderPhotos

Upload Photos

1,779,580 photos uploaded!

WunderBlogs® & News

Nearby

Air Quality

  Air Quality AQ Index Pollutant
Not available.

Snow Depth

Station Depth Elevation

Earthquake Activity

City Distance Mag. Time & Date
Minimum magnitude displayed is 2.5.

Coastal Water Temperatures

Place Temperature

Nearby Weather Stations